Time;durP1;ratioP1;P1;durP2;ratioP2;P2;SDS_P1;SDS_P2;PMS_P1;PMS_P2;Temp;Humidity;BMP_temperature;BMP_pressure;BME280_temperature;BME280_humidity;BME280_pressure;Samples;Min_cycle;Max_cycle;Signal;HPM_P1;HPM_P2
2023/01/28 00:01:21;;;;;;;7.13;5.33;;;;;;;-2.20;100.00;96753.06;5064015;28;20440;-76
2023/01/28 00:03:49;;;;;;;7.60;5.47;;;;;;;-1.95;100.00;96796.72;5060544;28;20428;-76
2023/01/28 00:06:17;;;;;;;8.07;5.20;;;;;;;-1.98;100.00;96774.69;5054275;28;20466;-76
2023/01/28 00:08:44;;;;;;;8.93;6.00;;;;;;;-2.04;100.00;96761.84;5070810;28;20481;-75
2023/01/28 00:11:12;;;;;;;12.87;9.13;;;;;;;-1.99;100.00;96754.97;5070731;28;20524;-76
2023/01/28 00:13:40;;;;;;;10.53;7.10;;;;;;;-2.03;100.00;96758.25;5070517;28;20531;-75
2023/01/28 00:16:08;;;;;;;10.77;7.67;;;;;;;-1.85;100.00;96776.16;5071718;28;20463;-75
2023/01/28 00:18:36;;;;;;;10.13;6.80;;;;;;;-2.26;100.00;96734.09;5070784;28;20974;-76
2023/01/28 00:21:05;;;;;;;8.40;6.53;;;;;;;-1.98;100.00;96786.84;5071634;28;20991;-76
2023/01/28 00:23:35;;;;;;;11.80;7.13;;;;;;;-1.96;100.00;96790.75;5070499;28;20883;-76
2023/01/28 00:26:09;;;;;;;7.07;6.47;;;;;;;-2.12;100.00;96755.28;5076675;28;20586;-76
2023/01/28 00:28:39;;;;;;;5.60;4.80;;;;;;;-1.95;100.00;96781.97;5075819;28;20442;-76
2023/01/28 00:31:16;;;;;;;7.97;6.20;;;;;;;-1.95;100.00;96788.97;5054130;28;20527;-76
2023/01/28 00:33:44;;;;;;;6.53;5.80;;;;;;;-2.17;100.00;96752.59;5071140;28;20440;-76
2023/01/28 00:36:12;;;;;;;10.60;5.53;;;;;;;-2.20;100.00;96745.28;5071334;28;20490;-76
2023/01/28 00:38:41;;;;;;;7.60;5.27;;;;;;;-1.89;100.00;96772.47;5054453;28;20936;-75
2023/01/28 00:41:09;;;;;;;7.00;5.53;;;;;;;-1.87;100.00;96783.38;5070804;28;20535;-76
2023/01/28 00:43:36;;;;;;;6.80;5.33;;;;;;;-1.95;100.00;96779.38;5071544;28;20798;-74
2023/01/28 00:46:06;;;;;;;5.83;5.30;;;;;;;-2.28;100.00;96736.09;5071048;28;20484;-75
2023/01/28 00:48:34;;;;;;;6.27;5.40;;;;;;;-1.86;100.00;96792.75;5050655;28;20433;-75
2023/01/28 00:51:01;;;;;;;7.17;5.30;;;;;;;-2.24;100.00;96733.84;5050252;28;20889;-76
2023/01/28 00:53:27;;;;;;;7.20;5.90;;;;;;;-1.95;100.00;96776.78;5071110;28;20442;-76
2023/01/28 00:55:54;;;;;;;8.10;5.67;;;;;;;-1.77;100.00;96788.72;5072632;28;20431;-75
2023/01/28 00:58:22;;;;;;;7.07;6.13;;;;;;;-1.84;100.00;96782.91;5072295;28;20818;-75
2023/01/28 01:00:50;;;;;;;5.90;5.30;;;;;;;-1.78;100.00;96800.09;5070827;28;20526;-75
2023/01/28 01:03:18;;;;;;;7.90;6.07;;;;;;;-1.73;100.00;96802.00;5072103;28;21218;-75
2023/01/28 01:05:45;;;;;;;24.43;17.27;;;;;;;-1.74;100.00;96796.00;5071490;28;20566;-75
2023/01/28 01:08:12;;;;;;;15.00;10.07;;;;;;;-1.94;100.00;96772.38;5057341;28;20971;-75
2023/01/28 01:10:39;;;;;;;11.73;8.07;;;;;;;-1.80;100.00;96795.16;5083876;28;20849;-76
2023/01/28 01:13:07;;;;;;;9.57;6.20;;;;;;;-1.64;100.00;96796.19;5051927;28;20830;-76
2023/01/28 01:15:34;;;;;;;9.30;6.77;;;;;;;-2.08;100.00;96754.56;5052844;28;20465;-75
2023/01/28 01:18:02;;;;;;;7.43;5.90;;;;;;;-2.10;100.00;96754.03;5061650;28;20525;-76
2023/01/28 01:20:32;;;;;;;6.50;5.23;;;;;;;-1.95;100.00;96769.00;5075335;28;21007;-76
2023/01/28 01:22:59;;;;;;;8.17;7.30;;;;;;;-1.73;100.00;96802.00;5054675;28;20467;-75
2023/01/28 01:25:26;;;;;;;10.50;6.33;;;;;;;-1.77;100.00;96795.72;5055608;28;20480;-76
2023/01/28 01:27:52;;;;;;;9.17;7.80;;;;;;;-1.94;100.00;96775.75;5073837;28;20476;-76
2023/01/28 01:30:20;;;;;;;9.00;7.07;;;;;;;-1.98;100.00;96779.06;5075553;28;20489;-75
2023/01/28 01:32:46;;;;;;;10.10;6.70;;;;;;;-2.04;100.00;96770.41;5077234;28;20463;-76
2023/01/28 01:35:15;;;;;;;10.63;7.53;;;;;;;-1.93;100.00;96779.94;5054587;28;20472;-75
2023/01/28 01:37:43;;;;;;;8.20;7.20;;;;;;;-2.09;100.00;96763.34;5068414;28;20466;-75
2023/01/28 01:40:11;;;;;;;8.23;6.63;;;;;;;-1.88;100.00;96803.31;5076005;28;20428;-75
2023/01/28 01:42:38;;;;;;;9.83;6.43;;;;;;;-2.05;100.00;96774.03;5075956;28;20428;-76
2023/01/28 01:45:13;;;;;;;8.53;6.50;;;;;;;-1.74;100.00;96801.19;5076036;28;20433;-75
2023/01/28 01:48:01;;;;;;;7.37;6.10;;;;;;;-2.08;100.00;96774.50;5073851;28;20490;-75
2023/01/28 01:50:44;;;;;;;10.43;6.67;;;;;;;-1.77;100.00;96812.03;5074334;28;20443;-75
2023/01/28 01:53:15;;;;;;;7.40;6.47;;;;;;;-1.89;100.00;96799.16;5072967;28;20466;-75
2023/01/28 01:55:46;;;;;;;9.23;7.27;;;;;;;-1.85;100.00;96794.31;5073865;28;20429;-75
2023/01/28 01:58:17;;;;;;;10.30;7.40;;;;;;;-1.73;100.00;96789.06;5072711;28;20460;-75
2023/01/28 02:00:45;;;;;;;11.60;7.20;;;;;;;-1.83;100.00;96790.44;5056575;28;20440;-74
2023/01/28 02:03:12;;;;;;;8.10;7.23;;;;;;;-1.65;100.00;96812.75;5078227;28;20513;-75
2023/01/28 02:05:39;;;;;;;9.00;7.63;;;;;;;-1.95;100.00;96771.59;5073988;28;20506;-76
2023/01/28 02:08:24;;;;;;;8.77;6.93;;;;;;;-1.79;100.00;96812.28;5074547;28;20468;-74
2023/01/28 02:11:17;;;;;;;7.13;6.43;;;;;;;-1.74;100.00;96808.97;5074602;28;20425;-73
2023/01/28 02:13:49;;;;;;;6.30;5.70;;;;;;;-1.82;100.00;96801.59;5089654;28;20798;-75
2023/01/28 02:16:16;;;;;;;8.57;5.97;;;;;;;-1.79;100.00;96807.09;5075152;28;20423;-75
2023/01/28 02:18:43;;;;;;;8.23;7.13;;;;;;;-1.81;100.00;96809.13;5086534;28;20489;-75
2023/01/28 02:21:10;;;;;;;9.87;7.77;;;;;;;-1.57;100.00;96829.72;5073350;28;20945;-75
2023/01/28 02:23:55;;;;;;;10.70;8.63;;;;;;;-1.68;100.00;96836.56;5073125;28;20553;-74
2023/01/28 02:26:34;;;;;;;10.20;7.33;;;;;;;-2.33;100.00;96738.59;5056337;28;20472;-75
2023/01/28 02:29:14;;;;;;;13.47;8.07;;;;;;;-1.77;100.00;96829.41;5073015;28;20439;-74
2023/01/28 02:31:47;;;;;;;9.80;7.40;;;;;;;-1.76;100.00;96830.97;5073087;28;20428;-74
2023/01/28 02:34:23;;;;;;;9.63;7.07;;;;;;;-1.72;100.00;96829.50;5079601;28;20439;-74
2023/01/28 02:37:08;;;;;;;10.67;7.90;;;;;;;-1.77;100.00;96819.81;5054017;28;20541;-75
2023/01/28 02:39:41;;;;;;;10.27;7.93;;;;;;;-2.26;100.00;96775.50;5074511;28;20450;-74
2023/01/28 02:42:20;;;;;;;11.07;8.10;;;;;;;-2.30;100.00;96766.63;5073181;28;20448;-75
2023/01/28 02:44:46;;;;;;;10.87;8.10;;;;;;;-2.20;100.00;96794.50;5074573;28;20432;-75
2023/01/28 02:50:06;;;;;;;8.87;7.73;;;;;;;-1.92;100.00;96830.72;5072294;28;20428;-74
2023/01/28 02:56:35;;;;;;;11.30;7.20;;;;;;;-1.90;100.00;96825.31;5065018;28;20444;-75
2023/01/28 02:59:29;;;;;;;8.17;7.37;;;;;;;-1.91;100.00;96826.31;4996204;28;20535;-75
2023/01/28 03:02:06;;;;;;;11.20;7.37;;;;;;;-2.01;100.00;96793.25;5060382;28;20439;-77
2023/01/28 03:04:44;;;;;;;8.37;7.40;;;;;;;-2.13;100.00;96795.94;5056204;28;20496;-75
2023/01/28 03:07:13;;;;;;;9.87;8.00;;;;;;;-2.07;100.00;96794.19;5072041;28;20518;-75
2023/01/28 03:09:42;;;;;;;11.43;8.47;;;;;;;-1.82;100.00;96838.66;5052391;28;20539;-74
2023/01/28 03:38:40;;;;;;;11.77;8.30;;;;;;;-2.49;100.00;96755.69;5082911;28;20444;-75
2023/01/28 03:41:10;;;;;;;9.93;7.50;;;;;;;-2.08;100.00;96818.53;5071490;28;20932;-75
2023/01/28 03:43:38;;;;;;;9.10;7.80;;;;;;;-2.11;100.00;96812.03;5056025;28;20514;-75
2023/01/28 03:46:05;;;;;;;12.77;8.47;;;;;;;-1.93;100.00;96823.19;5051089;28;20505;-74
2023/01/28 03:48:32;;;;;;;14.13;8.47;;;;;;;-1.98;100.00;96836.84;5058973;28;20439;-75
2023/01/28 03:51:02;;;;;;;10.20;8.40;;;;;;;-2.23;100.00;96793.16;5068746;28;20971;-75
2023/01/28 03:53:29;;;;;;;11.43;8.57;;;;;;;-1.96;100.00;96839.19;5051139;28;20495;-75
2023/01/28 03:55:56;;;;;;;9.97;8.43;;;;;;;-1.84;100.00;96855.47;5051480;28;20499;-75
2023/01/28 03:58:25;;;;;;;12.20;8.50;;;;;;;-2.00;100.00;96825.13;5051358;28;20516;-74
2023/01/28 04:00:53;;;;;;;12.47;9.30;;;;;;;-2.11;100.00;96804.25;5034913;28;20434;-75
2023/01/28 04:03:21;;;;;;;13.07;9.80;;;;;;;-1.84;100.00;96860.66;5051412;28;20441;-75
2023/01/28 04:06:04;;;;;;;15.43;11.20;;;;;;;-1.84;100.00;96853.66;5064472;28;20447;-75
2023/01/28 04:08:51;;;;;;;14.27;9.87;;;;;;;-1.98;100.00;96833.47;5050968;28;20437;-75
2023/01/28 04:11:28;;;;;;;15.00;10.40;;;;;;;-1.97;100.00;96837.63;5050778;28;20445;-75
2023/01/28 04:13:55;;;;;;;12.77;9.50;;;;;;;-2.14;100.00;96811.69;5063724;28;20436;-75
2023/01/28 04:16:23;;;;;;;15.57;10.73;;;;;;;-2.00;100.00;96841.47;5071172;28;20796;-75
2023/01/28 04:18:51;;;;;;;11.93;10.17;;;;;;;-1.92;100.00;96842.88;5071069;28;20444;-75
2023/01/28 04:21:17;;;;;;;15.63;10.30;;;;;;;-2.04;100.00;96830.00;5071199;28;20428;-75
2023/01/28 04:23:44;;;;;;;16.17;10.53;;;;;;;-1.90;100.00;96852.00;5071095;28;20826;-75
2023/01/28 04:26:12;;;;;;;15.30;10.67;;;;;;;-1.88;100.00;96852.53;5084077;28;20979;-75
2023/01/28 04:28:39;;;;;;;13.00;9.20;;;;;;;-2.05;100.00;96818.06;5071095;28;20435;-75
2023/01/28 04:31:06;;;;;;;15.60;9.83;;;;;;;-1.87;100.00;96861.09;5070933;28;20493;-75
2023/01/28 04:33:53;;;;;;;15.53;10.57;;;;;;;-1.93;100.00;96864.63;5070137;28;20447;-75
2023/01/28 04:36:37;;;;;;;14.43;11.50;;;;;;;-2.11;100.00;96830.16;5072539;28;20468;-75
2023/01/28 04:39:22;;;;;;;16.87;10.30;;;;;;;-1.98;100.00;96849.00;5059177;28;20462;-75
2023/01/28 04:42:11;;;;;;;18.13;10.60;;;;;;;-2.06;100.00;96839.81;5055317;28;20527;-75
2023/01/28 04:44:57;;;;;;;14.07;9.70;;;;;;;-2.51;100.00;96781.03;5073718;28;20502;-75
2023/01/28 04:47:36;;;;;;;13.10;9.57;;;;;;;-2.15;100.00;96823.84;5050432;28;20479;-75
2023/01/28 04:50:26;;;;;;;14.73;9.20;;;;;;;-1.86;100.00;96863.47;5073169;28;20951;-75
2023/01/28 04:53:16;;;;;;;16.60;10.80;;;;;;;-1.91;100.00;96860.78;5070217;28;20432;-75
2023/01/28 04:55:57;;;;;;;12.93;9.20;;;;;;;-1.83;100.00;96875.97;5076207;28;20474;-75
2023/01/28 04:58:25;;;;;;;14.37;10.03;;;;;;;-1.90;100.00;96880.50;5054685;28;20460;-75
2023/01/28 05:00:58;;;;;;;16.67;11.47;;;;;;;-2.07;100.00;96846.00;5054768;28;20449;-75
2023/01/28 05:03:25;;;;;;;13.27;10.40;;;;;;;-2.18;100.00;96832.09;5074801;28;20447;-75
2023/01/28 05:05:53;;;;;;;16.07;11.17;;;;;;;-2.11;100.00;96839.72;5058248;28;20439;-75
2023/01/28 05:08:25;;;;;;;15.23;9.90;;;;;;;-2.08;100.00;96836.66;5058414;28;20483;-75
2023/01/28 05:10:52;;;;;;;16.00;10.53;;;;;;;-2.18;100.00;96834.69;5073977;28;20436;-75
2023/01/28 05:13:19;;;;;;;15.17;11.60;;;;;;;-1.90;100.00;96864.16;5057610;28;20517;-75
2023/01/28 05:15:51;;;;;;;17.60;11.13;;;;;;;-2.14;100.00;96835.00;5057477;28;20435;-75
2023/01/28 05:18:19;;;;;;;15.53;11.07;;;;;;;-2.05;100.00;96843.19;5073739;28;20563;-75
2023/01/28 05:20:57;;;;;;;16.20;11.77;;;;;;;-2.10;100.00;96838.72;5073628;28;20439;-75
2023/01/28 05:23:24;;;;;;;21.97;14.80;;;;;;;-2.27;100.00;96809.38;5073835;28;20459;-75
2023/01/28 05:25:54;;;;;;;16.20;10.90;;;;;;;-2.09;100.00;96835.09;5073301;28;20463;-75
2023/01/28 05:28:21;;;;;;;19.20;12.23;;;;;;;-2.02;100.00;96848.69;5073527;28;20478;-74
2023/01/28 05:30:48;;;;;;;13.47;11.00;;;;;;;-1.95;100.00;96862.28;5077248;28;20462;-75
2023/01/28 05:33:15;;;;;;;13.60;12.07;;;;;;;-1.99;100.00;96842.25;5072569;28;20437;-75
2023/01/28 05:35:42;;;;;;;15.20;11.53;;;;;;;-1.87;100.00;96872.28;5053468;28;20437;-75
2023/01/28 05:38:09;;;;;;;14.50;10.17;;;;;;;-1.80;100.00;96877.28;5065934;28;20464;-75
2023/01/28 05:40:36;;;;;;;13.80;9.83;;;;;;;-2.04;100.00;96847.34;5073336;28;20454;-74
2023/01/28 05:43:03;;;;;;;12.33;10.20;;;;;;;-1.92;100.00;96869.59;5057217;28;20806;-75
2023/01/28 05:45:38;;;;;;;15.83;10.53;;;;;;;-2.11;100.00;96837.91;5060925;28;20537;-75
2023/01/28 05:48:15;;;;;;;19.90;10.17;;;;;;;-1.92;100.00;96873.97;5057637;28;20472;-75
2023/01/28 05:51:04;;;;;;;14.83;9.70;;;;;;;-2.02;100.00;96851.25;5066828;28;20468;-75
2023/01/28 05:53:33;;;;;;;11.93;9.80;;;;;;;-1.91;100.00;96860.78;5081169;28;20433;-75
2023/01/28 05:56:00;;;;;;;15.03;10.30;;;;;;;-2.02;100.00;96847.88;5052877;28;20469;-75
2023/01/28 05:58:30;;;;;;;14.13;9.20;;;;;;;-1.75;100.00;96890.34;5072388;28;20566;-75
2023/01/28 06:01:01;;;;;;;11.67;9.57;;;;;;;-1.82;100.00;96874.94;5072920;28;20435;-74
2023/01/28 06:03:36;;;;;;;12.80;8.83;;;;;;;-1.87;100.00;96863.69;5053317;28;21038;-75
2023/01/28 06:06:03;;;;;;;13.33;8.00;;;;;;;-1.90;100.00;96864.94;5067998;28;20932;-75
2023/01/28 06:08:30;;;;;;;13.23;8.63;;;;;;;-1.94;100.00;96850.91;5056696;28;20471;-75
2023/01/28 06:10:57;;;;;;;11.50;9.63;;;;;;;-1.90;100.00;96866.75;5056955;28;20442;-75
2023/01/28 06:13:24;;;;;;;11.63;7.77;;;;;;;-1.72;100.00;96883.91;5067808;28;20432;-75
2023/01/28 06:16:03;;;;;;;13.40;9.63;;;;;;;-1.96;100.00;96878.84;5077573;28;20439;-75
2023/01/28 06:18:41;;;;;;;15.10;10.20;;;;;;;-2.29;100.00;96824.38;5067920;28;20505;-75
2023/01/28 06:21:08;;;;;;;16.00;8.83;;;;;;;-1.74;100.00;96907.44;5052666;28;20449;-75
2023/01/28 06:23:35;;;;;;;16.50;9.13;;;;;;;-1.86;100.00;96891.19;5065879;28;20440;-75
2023/01/28 06:26:06;;;;;;;11.30;8.67;;;;;;;-1.66;100.00;96911.47;5072807;28;20456;-75
2023/01/28 06:28:34;;;;;;;15.30;9.60;;;;;;;-2.05;100.00;96872.47;5056558;28;20468;-75
2023/01/28 06:31:01;;;;;;;11.93;9.03;;;;;;;-1.99;100.00;96873.34;5056439;28;20485;-75
2023/01/28 06:33:28;;;;;;;12.70;9.27;;;;;;;-1.93;100.00;96882.78;5086759;28;20419;-75
2023/01/28 06:35:55;;;;;;;10.27;8.33;;;;;;;-1.86;100.00;96907.53;5062164;28;20950;-75
2023/01/28 06:38:22;;;;;;;10.57;9.00;;;;;;;-2.03;100.00;96874.81;5073029;28;20509;-75
2023/01/28 06:40:54;;;;;;;12.87;9.10;;;;;;;-2.03;100.00;96883.38;5055601;28;20436;-75
2023/01/28 06:43:26;;;;;;;14.73;8.73;;;;;;;-1.95;100.00;96890.00;5072637;28;20493;-75
2023/01/28 06:45:54;;;;;;;12.17;8.87;;;;;;;-1.79;100.00;96915.16;5074087;28;20424;-75
2023/01/28 06:48:20;;;;;;;11.20;7.97;;;;;;;-1.78;100.00;96908.94;5072401;28;20559;-75
2023/01/28 06:50:48;;;;;;;9.63;7.43;;;;;;;-1.57;100.00;96928.25;5051901;28;20536;-75
2023/01/28 06:53:16;;;;;;;11.00;7.77;;;;;;;-1.60;100.00;96937.28;5054754;28;20473;-76
2023/01/28 06:55:43;;;;;;;11.57;7.80;;;;;;;-1.81;100.00;96909.41;5072352;28;20920;-75
2023/01/28 06:58:09;;;;;;;9.40;6.70;;;;;;;-1.62;100.00;96928.91;5072318;28;20452;-74
2023/01/28 07:00:36;;;;;;;11.10;7.87;;;;;;;-1.56;100.00;96946.16;5072498;28;20435;-75
2023/01/28 07:03:04;;;;;;;9.03;7.27;;;;;;;-1.76;100.00;96917.28;5071189;28;20475;-75
2023/01/28 07:05:31;;;;;;;9.50;7.13;;;;;;;-1.55;100.00;96949.53;5071202;28;20432;-76
2023/01/28 07:07:57;;;;;;;9.87;7.20;;;;;;;-1.73;100.00;96934.19;5072010;28;20878;-76
2023/01/28 07:10:24;;;;;;;8.57;6.80;;;;;;;-1.63;100.00;96945.50;5072652;28;20862;-75
2023/01/28 07:12:51;;;;;;;6.50;5.80;;;;;;;-1.54;100.00;96967.44;5071654;28;20468;-76
2023/01/28 07:15:17;;;;;;;8.30;6.00;;;;;;;-1.91;100.00;96917.00;5073139;28;20451;-76
2023/01/28 07:17:44;;;;;;;6.43;5.10;;;;;;;-1.67;100.00;96953.97;5085506;28;20862;-76
2023/01/28 07:20:13;;;;;;;5.47;4.90;;;;;;;-1.57;100.00;96965.31;5050749;28;20491;-76
2023/01/28 07:22:42;;;;;;;6.40;4.73;;;;;;;-1.75;100.00;96962.09;5069300;28;20785;-76
2023/01/28 07:25:09;;;;;;;5.87;4.40;;;;;;;-1.60;100.00;96970.19;5050649;28;20449;-76
2023/01/28 07:27:36;;;;;;;5.00;4.20;;;;;;;-1.63;100.00;96968.81;5050764;28;20477;-76
2023/01/28 07:30:04;;;;;;;3.33;3.10;;;;;;;-1.80;100.00;96949.84;5070699;28;20420;-76
2023/01/28 07:32:30;;;;;;;3.90;3.50;;;;;;;-1.86;100.00;96941.22;5070500;28;20432;-76
2023/01/28 07:34:57;;;;;;;4.13;3.73;;;;;;;-2.04;100.00;96915.47;5070534;28;20450;-75
2023/01/28 07:37:24;;;;;;;4.60;3.60;;;;;;;-2.02;100.00;96900.47;5070438;28;20448;-76
2023/01/28 07:39:51;;;;;;;3.43;3.13;;;;;;;-1.77;100.00;96949.38;5070274;28;20539;-76
2023/01/28 07:42:17;;;;;;;6.20;3.43;;;;;;;-1.75;100.00;96965.50;5057260;28;20443;-76
2023/01/28 07:44:45;;;;;;;2.63;2.43;;;;;;;-2.00;100.00;96921.78;5067494;28;20938;-75
2023/01/28 07:47:12;;;;;;;4.43;3.27;;;;;;;-2.21;100.00;96888.75;5066239;28;20506;-75
2023/01/28 07:49:38;;;;;;;4.37;3.50;;;;;;;-2.05;100.00;96915.72;5063768;28;20786;-76
2023/01/28 07:52:06;;;;;;;3.17;2.73;;;;;;;-1.60;100.00;96981.34;5051690;28;20528;-75
2023/01/28 07:54:33;;;;;;;3.80;3.10;;;;;;;-1.79;100.00;96952.22;5076554;28;20508;-72
2023/01/28 07:57:00;;;;;;;2.90;2.70;;;;;;;-1.86;100.00;96933.44;5095919;28;20466;-73
2023/01/28 07:59:26;;;;;;;3.00;2.37;;;;;;;-1.57;100.00;96982.69;5095724;28;20488;-75
2023/01/28 08:01:53;;;;;;;3.47;3.10;;;;;;;-1.75;100.00;96954.34;5071231;28;20439;-76
2023/01/28 08:04:20;;;;;;;2.90;2.70;;;;;;;-1.80;100.00;96945.47;5071093;28;20543;-75
2023/01/28 08:06:47;;;;;;;5.03;3.57;;;;;;;-1.57;100.00;96996.44;5072150;28;20479;-75
2023/01/28 08:09:14;;;;;;;4.23;3.17;;;;;;;-1.77;100.00;96975.31;5072338;28;20559;-76
2023/01/28 08:11:41;;;;;;;4.87;3.73;;;;;;;-1.75;100.00;96962.09;5072078;28;20796;-75
2023/01/28 08:14:09;;;;;;;4.47;3.33;;;;;;;-1.85;100.00;96955.75;5033798;28;20488;-76
2023/01/28 08:16:36;;;;;;;3.43;3.13;;;;;;;-1.68;100.00;96965.38;5050561;28;20485;-75
2023/01/28 08:19:02;;;;;;;4.37;3.50;;;;;;;-1.70;100.00;96972.59;5066471;28;20443;-76
2023/01/28 08:21:29;;;;;;;4.20;3.77;;;;;;;-1.61;100.00;96973.78;5071842;28;20432;-75
2023/01/28 08:23:56;;;;;;;5.23;4.00;;;;;;;-1.74;100.00;96959.28;5084273;28;20475;-75
2023/01/28 08:26:22;;;;;;;3.57;3.27;;;;;;;-1.64;100.00;96969.84;5079040;28;20940;-75
2023/01/28 08:28:49;;;;;;;4.03;3.70;;;;;;;-1.54;100.00;96988.19;5076029;28;21081;-75
2023/01/28 08:31:17;;;;;;;5.20;3.70;;;;;;;-1.45;100.00;97006.75;5079785;28;20502;-75
2023/01/28 08:33:44;;;;;;;4.30;3.90;;;;;;;-1.70;100.00;96964.81;5066229;28;20442;-75
2023/01/28 08:36:10;;;;;;;3.77;3.47;;;;;;;-1.78;100.00;96947.81;5069159;28;20891;-75
2023/01/28 08:38:37;;;;;;;4.33;3.90;;;;;;;-1.71;100.00;96956.25;5072915;28;20466;-75
2023/01/28 08:41:04;;;;;;;7.23;3.70;;;;;;;-1.71;100.00;96942.50;5079660;28;20436;-75
2023/01/28 08:43:30;;;;;;;4.40;4.10;;;;;;;-1.42;100.00;96998.50;5073692;28;20451;-75
2023/01/28 08:45:57;;;;;;;4.10;3.50;;;;;;;-1.61;100.00;96958.22;5079691;28;20425;-75
2023/01/28 08:48:24;;;;;;;2.73;2.40;;;;;;;-1.51;100.00;96977.34;5083889;28;20826;-75
2023/01/28 08:50:51;;;;;;;4.47;4.00;;;;;;;-1.51;100.00;96989.50;5080947;28;20441;-75
2023/01/28 08:53:19;;;;;;;4.13;3.73;;;;;;;-1.65;100.00;96983.81;5075751;28;20431;-74
2023/01/28 08:55:46;;;;;;;3.60;2.73;;;;;;;-1.76;100.00;96960.53;5078913;28;20425;-75
2023/01/28 08:58:15;;;;;;;3.43;3.13;;;;;;;-1.48;100.00;97013.16;5082772;28;20539;-75
2023/01/28 09:00:43;;;;;;;3.00;2.70;;;;;;;-1.66;100.00;96990.03;5080520;28;20522;-74
2023/01/28 09:03:10;;;;;;;3.53;3.17;;;;;;;-1.48;100.00;97020.94;5075921;28;20526;-75
2023/01/28 09:05:37;;;;;;;3.47;3.20;;;;;;;-1.55;100.00;97011.75;5077694;28;20486;-75
2023/01/28 09:08:10;;;;;;;4.00;3.70;;;;;;;-1.49;100.00;97026.38;5062397;28;20472;-75
2023/01/28 09:10:37;;;;;;;4.50;3.10;;;;;;;-1.72;100.00;96978.00;5081983;28;20782;-75
2023/01/28 09:13:14;;;;;;;3.90;3.50;;;;;;;-1.53;100.00;97022.66;5056007;28;20424;-75
2023/01/28 09:15:41;;;;;;;3.00;2.70;;;;;;;-1.69;100.00;96995.69;5083854;28;20915;-74
2023/01/28 09:18:08;;;;;;;4.23;3.83;;;;;;;-1.49;100.00;97031.53;5060502;28;20492;-74
2023/01/28 09:20:36;;;;;;;3.50;3.20;;;;;;;-1.66;100.00;97000.41;5074204;28;20877;-75
2023/01/28 09:23:03;;;;;;;2.80;2.60;;;;;;;-1.50;100.00;97037.75;5077467;28;20435;-74
2023/01/28 09:25:30;;;;;;;3.73;3.43;;;;;;;-1.51;100.00;97033.59;5059080;28;20494;-75
2023/01/28 09:27:57;;;;;;;4.90;3.50;;;;;;;-1.53;100.00;97022.66;5060408;28;20469;-75
2023/01/28 09:30:24;;;;;;;4.60;3.20;;;;;;;-1.49;100.00;97032.34;5082439;28;20752;-74
2023/01/28 09:32:52;;;;;;;3.63;3.33;;;;;;;-1.66;100.00;97002.19;5077958;28;20852;-75
2023/01/28 09:35:20;;;;;;;5.60;2.87;;;;;;;-1.39;100.00;97047.28;5060107;28;20449;-75
2023/01/28 09:37:47;;;;;;;3.33;3.07;;;;;;;-1.38;100.00;97054.06;5062983;28;20455;-75
2023/01/28 09:40:20;;;;;;;4.77;3.30;;;;;;;-1.66;100.00;97021.13;5082475;28;20483;-75
2023/01/28 09:42:56;;;;;;;3.47;3.27;;;;;;;-1.52;100.00;97065.72;5085047;28;20465;-75
2023/01/28 09:45:49;;;;;;;4.73;4.33;;;;;;;-1.62;100.00;97045.56;5088687;28;20469;-75
2023/01/28 09:48:23;;;;;;;3.43;2.90;;;;;;;-1.82;100.00;97025.25;5078113;28;20983;-74
2023/01/28 09:50:53;;;;;;;3.87;3.50;;;;;;;-1.87;100.00;97011.38;5082620;28;20459;-75
2023/01/28 09:53:37;;;;;;;3.70;3.40;;;;;;;-1.31;100.00;97066.91;5063025;28;20961;-75
2023/01/28 09:56:13;;;;;;;4.70;3.37;;;;;;;-1.56;100.00;97072.41;5056516;28;20513;-75
2023/01/28 09:58:42;;;;;;;5.50;2.70;;;;;;;-1.51;100.00;97064.69;5059805;28;20435;-75
2023/01/28 10:01:08;;;;;;;2.90;2.70;;;;;;;-1.44;100.00;97073.16;5072386;28;20429;-75
2023/01/28 10:03:53;;;;;;;2.70;2.40;;;;;;;-1.69;100.00;97060.47;5056041;28;20866;-75
2023/01/28 10:06:48;;;;;;;3.20;2.87;;;;;;;-1.54;100.00;97071.13;5072557;28;20424;-75
2023/01/28 10:09:28;;;;;;;3.67;3.40;;;;;;;-1.52;100.00;97074.28;5072267;28;20984;-75
2023/01/28 10:12:04;;;;;;;4.77;2.73;;;;;;;-1.54;100.00;97071.13;5072397;28;20428;-75
2023/01/28 10:14:52;;;;;;;2.93;2.73;;;;;;;-1.62;100.00;97071.50;5055549;28;20439;-74
2023/01/28 10:17:27;;;;;;;4.40;3.97;;;;;;;-1.54;100.00;97083.31;5055201;28;20461;-75
2023/01/28 10:20:00;;;;;;;3.30;3.00;;;;;;;-1.63;100.00;97077.69;5072302;28;20462;-75
2023/01/28 10:22:36;;;;;;;3.30;2.87;;;;;;;-1.91;100.00;97036.97;5073456;28;20432;-75
2023/01/28 10:25:14;;;;;;;2.37;2.17;;;;;;;-1.66;100.00;97080.75;5073336;28;20969;-75
2023/01/28 10:27:44;;;;;;;2.87;2.50;;;;;;;-1.80;100.00;97051.72;5073203;28;20460;-76
2023/01/28 10:30:26;;;;;;;3.60;2.87;;;;;;;-1.67;100.00;97079.19;5073040;28;20428;-75
2023/01/28 10:33:14;;;;;;;2.63;2.43;;;;;;;-1.59;100.00;97075.44;5051557;28;20468;-75
2023/01/28 10:35:46;;;;;;;3.10;2.80;;;;;;;-1.63;100.00;97071.72;5076302;28;20542;-75
2023/01/28 10:38:16;;;;;;;3.63;2.90;;;;;;;-1.56;100.00;97064.63;5074694;28;20487;-76
2023/01/28 10:40:46;;;;;;;4.10;3.70;;;;;;;-1.72;100.00;97022.06;5072681;28;20952;-76
2023/01/28 10:43:19;;;;;;;3.53;3.10;;;;;;;-1.56;100.00;97065.41;5076501;28;20444;-76
2023/01/28 10:46:01;;;;;;;4.30;3.90;;;;;;;-1.74;100.00;97046.63;5074272;28;20445;-73
2023/01/28 10:48:31;;;;;;;2.90;2.70;;;;;;;-1.79;100.00;97022.19;5065678;28;20523;-76
2023/01/28 10:51:05;;;;;;;3.10;2.90;;;;;;;-1.52;100.00;97050.16;5063461;28;20523;-74
2023/01/28 10:53:38;;;;;;;3.70;3.40;;;;;;;-1.37;100.00;97068.59;5069077;28;20485;-75
2023/01/28 10:56:10;;;;;;;4.50;3.13;;;;;;;-1.70;100.00;97021.84;5071954;28;20484;-75
2023/01/28 10:58:51;;;;;;;3.60;3.30;;;;;;;-1.39;100.00;97065.44;5071920;28;20433;-75
2023/01/28 11:01:17;;;;;;;6.20;3.00;;;;;;;-1.49;100.00;97050.47;5071764;28;20784;-76
2023/01/28 11:03:56;;;;;;;3.03;2.83;;;;;;;-1.42;100.00;97068.50;5081985;28;20441;-75
2023/01/28 11:06:26;;;;;;;3.53;3.20;;;;;;;-1.68;100.00;97009.44;5037516;28;20437;-75
2023/01/28 11:08:53;;;;;;;6.10;3.30;;;;;;;-1.33;100.00;97068.94;5052877;28;20499;-75
2023/01/28 11:11:27;;;;;;;3.13;2.93;;;;;;;-1.75;100.00;97017.31;5070709;28;20447;-76
2023/01/28 11:13:57;;;;;;;2.60;2.40;;;;;;;-1.42;100.00;97070.31;5071906;28;20969;-75
2023/01/28 11:16:25;;;;;;;3.20;2.90;;;;;;;-1.59;100.00;97031.38;5071761;28;20485;-76
2023/01/28 11:19:06;;;;;;;5.03;3.93;;;;;;;-1.47;100.00;97045.06;5066781;28;20908;-75
2023/01/28 11:21:34;;;;;;;3.30;3.00;;;;;;;-1.37;100.00;97047.06;5071529;28;20455;-75
2023/01/28 11:24:06;;;;;;;3.10;2.63;;;;;;;-1.34;100.00;97055.16;5081539;28;20425;-75
2023/01/28 11:26:39;;;;;;;5.03;3.40;;;;;;;-1.47;100.00;97068.41;5062057;28;20468;-75
2023/01/28 11:29:05;;;;;;;3.37;2.97;;;;;;;-1.42;100.00;97065.91;5063148;28;20464;-75
2023/01/28 11:31:42;;;;;;;2.63;2.43;;;;;;;-1.32;100.00;97080.88;5051609;28;20555;-76
2023/01/28 11:34:16;;;;;;;3.73;3.43;;;;;;;-1.25;100.00;97069.34;5078417;28;20810;-76
2023/01/28 11:37:01;;;;;;;3.30;2.97;;;;;;;-1.53;100.00;97022.66;5065027;28;21013;-76
2023/01/28 11:39:28;;;;;;;2.97;2.33;;;;;;;-1.42;100.00;97052.16;5071230;28;20470;-76
2023/01/28 11:42:18;;;;;;;3.67;3.37;;;;;;;-1.37;100.00;97055.63;5074198;28;20475;-76
2023/01/28 11:44:46;;;;;;;3.23;2.93;;;;;;;-1.27;100.00;97075.78;5061324;28;20845;-76
2023/01/28 11:47:32;;;;;;;3.63;3.43;;;;;;;-1.44;100.00;97056.81;5070655;28;20784;-75
2023/01/28 11:50:02;;;;;;;3.80;3.00;;;;;;;-1.18;100.00;97084.00;5070689;28;20459;-76
2023/01/28 11:52:50;;;;;;;7.00;3.53;;;;;;;-1.35;100.00;97070.94;5070582;28;20493;-76
2023/01/28 11:55:36;;;;;;;4.07;3.77;;;;;;;-1.29;100.00;97070.03;5056237;28;20432;-76
2023/01/28 11:58:17;;;;;;;3.77;3.07;;;;;;;-1.14;100.00;97069.53;5051972;28;20460;-76
2023/01/28 12:01:10;;;;;;;4.20;3.07;;;;;;;-1.37;100.00;97044.47;5071737;28;20426;-76
2023/01/28 12:03:55;;;;;;;2.93;2.73;;;;;;;-1.46;100.00;97064.03;5070243;28;20528;-76
2023/01/28 12:06:38;;;;;;;2.60;2.40;;;;;;;-1.50;100.00;97077.44;5053515;28;20467;-76
2023/01/28 12:09:08;;;;;;;2.50;2.30;;;;;;;-1.54;100.00;97073.72;5071391;28;20492;-76
2023/01/28 12:14:32;;;;;;;3.77;3.47;;;;;;;-1.48;100.00;97074.59;5066821;28;20447;-76
2023/01/28 12:17:09;;;;;;;4.30;3.60;;;;;;;-1.63;100.00;97066.53;5053428;28;20493;-76